Time;durP1;ratioP1;P1;durP2;ratioP2;P2;SDS_P1;SDS_P2;PMS_P1;PMS_P2;Temp;Humidity;BMP_temperature;BMP_pressure;BME280_temperature;BME280_humidity;BME280_pressure;Samples;Min_cycle;Max_cycle;Signal;HPM_P1;HPM_P2
2023/03/09 00:02:17;;;;;;;;;;;9.66;21.81;;;;;;2673907;76;20759;-90
2023/03/09 00:05:45;;;;;;;;;;;9.83;21.71;;;;;;2674056;76;20328;-90
2023/03/09 00:09:13;;;;;;;;;;;10.14;21.78;;;;;;2673877;76;20324;-90
2023/03/09 00:12:41;;;;;;;;;;;10.42;21.26;;;;;;2674386;76;20691;-90
2023/03/09 00:16:11;;;;;;;;;;;10.58;20.15;;;;;;2674519;76;20365;-90
2023/03/09 00:19:39;;;;;;;;;;;10.79;19.34;;;;;;2673761;76;20351;-90
2023/03/09 00:23:09;;;;;;;;;;;11.03;18.93;;;;;;2673979;76;20337;-90
2023/03/09 00:26:38;;;;;;;;;;;11.16;18.04;;;;;;2674096;76;20324;-91
2023/03/09 00:30:06;;;;;;;;;;;11.31;17.69;;;;;;2673619;76;20360;-91
2023/03/09 00:33:36;;;;;;;;;;;11.45;17.12;;;;;;2674844;76;20298;-91
2023/03/09 00:37:04;;;;;;;;;;;11.61;16.83;;;;;;2674137;76;20350;-90
2023/03/09 00:40:32;;;;;;;;;;;11.64;16.74;;;;;;2673571;76;20356;-91
2023/03/09 00:44:00;;;;;;;;;;;11.60;15.63;;;;;;2674298;76;20327;-91
2023/03/09 00:47:28;;;;;;;;;;;11.66;15.16;;;;;;2674304;76;20303;-91
2023/03/09 00:50:56;;;;;;;;;;;11.78;14.90;;;;;;2674292;76;20341;-91
2023/03/09 00:54:24;;;;;;;;;;;11.86;14.85;;;;;;2674755;76;20365;-90
2023/03/09 00:57:52;;;;;;;;;;;11.82;14.48;;;;;;2674471;76;20305;-90
2023/03/09 01:01:26;;;;;;;;;;;11.66;13.68;;;;;;2673985;76;20336;-90
2023/03/09 01:04:53;;;;;;;;;;;11.58;13.49;;;;;;2673803;76;20332;-91
2023/03/09 01:08:22;;;;;;;;;;;11.66;13.74;;;;;;2674484;76;20312;-90
2023/03/09 01:11:50;;;;;;;;;;;11.54;12.97;;;;;;2674160;76;20316;-91
2023/03/09 01:15:18;;;;;;;;;;;11.47;13.08;;;;;;2674141;76;20305;-90
2023/03/09 01:18:46;;;;;;;;;;;11.42;13.05;;;;;;2673851;76;20291;-91
2023/03/09 01:22:14;;;;;;;;;;;11.45;12.82;;;;;;2674097;76;20308;-91
2023/03/09 01:25:42;;;;;;;;;;;11.48;12.68;;;;;;2673500;76;20341;-91
2023/03/09 01:29:10;;;;;;;;;;;11.32;12.65;;;;;;2674290;76;20316;-91
2023/03/09 01:32:38;;;;;;;;;;;11.26;12.75;;;;;;2674683;76;20313;-92
2023/03/09 01:36:06;;;;;;;;;;;11.18;12.81;;;;;;2674135;76;20324;-91
2023/03/09 01:39:34;;;;;;;;;;;11.03;12.80;;;;;;2673984;76;20304;-91
2023/03/09 01:43:02;;;;;;;;;;;11.16;13.04;;;;;;2673142;76;20368;-91
2023/03/09 01:46:30;;;;;;;;;;;11.37;12.73;;;;;;2674437;76;20353;-88
2023/03/09 01:50:00;;;;;;;;;;;11.45;12.29;;;;;;2674629;76;20320;-91
2023/03/09 01:53:28;;;;;;;;;;;11.43;11.81;;;;;;2674560;76;20365;-90
2023/03/09 01:56:56;;;;;;;;;;;11.51;11.32;;;;;;2674258;76;20357;-92
2023/03/09 02:00:24;;;;;;;;;;;11.57;10.81;;;;;;2674347;76;20338;-91
2023/03/09 02:03:52;;;;;;;;;;;11.59;10.30;;;;;;2674165;76;20763;-91
2023/03/09 02:07:20;;;;;;;;;;;11.62;9.85;;;;;;2674466;76;20761;-91
2023/03/09 02:10:51;;;;;;;;;;;11.78;9.33;;;;;;2674513;76;20316;-89
2023/03/09 02:14:19;;;;;;;;;;;11.92;8.98;;;;;;2673894;76;20317;-89
2023/03/09 02:17:47;;;;;;;;;;;11.94;8.31;;;;;;2674048;76;20780;-89
2023/03/09 02:21:15;;;;;;;;;;;11.72;9.51;;;;;;2674100;76;20754;-90
2023/03/09 02:24:45;;;;;;;;;;;10.81;20.92;;;;;;2673373;76;20770;-89
2023/03/09 02:28:13;;;;;;;;;;;10.19;27.13;;;;;;2674069;76;20316;-93
2023/03/09 02:31:41;;;;;;;;;;;10.10;28.05;;;;;;2677305;76;20789;-93
2023/03/09 02:35:09;;;;;;;;;;;9.95;29.04;;;;;;2674186;76;20574;-93
2023/03/09 02:38:37;;;;;;;;;;;9.90;31.35;;;;;;2674912;76;20329;-93
2023/03/09 02:42:05;;;;;;;;;;;9.27;37.39;;;;;;2672211;76;20352;-91
2023/03/09 02:45:34;;;;;;;;;;;8.64;47.43;;;;;;2673136;76;20335;-90
2023/03/09 02:49:02;;;;;;;;;;;8.38;52.92;;;;;;2672423;76;20331;-91
2023/03/09 02:52:30;;;;;;;;;;;8.30;52.96;;;;;;2672278;76;20310;-91
2023/03/09 02:55:58;;;;;;;;;;;8.22;52.01;;;;;;2673979;76;20301;-90
2023/03/09 02:59:26;;;;;;;;;;;8.04;55.22;;;;;;2672729;76;20304;-91
2023/03/09 03:02:54;;;;;;;;;;;7.82;54.07;;;;;;2673292;76;20315;-92
2023/03/09 03:06:22;;;;;;;;;;;8.00;56.92;;;;;;2672696;76;20339;-92
2023/03/09 03:09:51;;;;;;;;;;;8.03;54.49;;;;;;2672614;76;20319;-92
2023/03/09 03:13:19;;;;;;;;;;;8.15;54.49;;;;;;2673508;76;20323;-93
2023/03/09 03:16:47;;;;;;;;;;;8.07;51.57;;;;;;2672665;76;20320;-93
2023/03/09 03:20:15;;;;;;;;;;;8.20;48.78;;;;;;2672801;76;20296;-91
2023/03/09 03:23:43;;;;;;;;;;;8.29;49.84;;;;;;2672992;76;20360;-91
2023/03/09 03:27:11;;;;;;;;;;;8.42;48.44;;;;;;2672590;76;20305;-92
2023/03/09 03:30:39;;;;;;;;;;;8.37;47.60;;;;;;2673763;76;20351;-92
2023/03/09 03:34:08;;;;;;;;;;;8.57;48.10;;;;;;2674289;76;20321;-92
2023/03/09 03:37:36;;;;;;;;;;;8.53;47.82;;;;;;2672837;76;20343;-92
2023/03/09 03:41:04;;;;;;;;;;;8.63;48.58;;;;;;2673238;76;20328;-92
2023/03/09 03:44:32;;;;;;;;;;;8.62;49.66;;;;;;2673303;76;20326;-92
2023/03/09 03:48:01;;;;;;;;;;;8.74;49.26;;;;;;2674174;76;20363;-92
2023/03/09 03:51:29;;;;;;;;;;;8.87;50.30;;;;;;2674749;76;20336;-92
2023/03/09 03:54:57;;;;;;;;;;;8.88;49.17;;;;;;2674604;76;20760;-91
2023/03/09 03:58:25;;;;;;;;;;;8.91;49.28;;;;;;2673936;76;20809;-91
2023/03/09 04:01:53;;;;;;;;;;;8.95;49.02;;;;;;2674753;76;20757;-91
2023/03/09 04:05:21;;;;;;;;;;;8.98;48.64;;;;;;2673990;76;20800;-91
2023/03/09 04:08:49;;;;;;;;;;;9.04;48.20;;;;;;2674540;76;20643;-92
2023/03/09 04:12:19;;;;;;;;;;;9.02;47.61;;;;;;2674519;76;20316;-92
2023/03/09 04:15:47;;;;;;;;;;;8.96;47.37;;;;;;2674135;76;20311;-91
2023/03/09 04:19:15;;;;;;;;;;;9.09;48.04;;;;;;2674161;76;20315;-90
2023/03/09 04:22:43;;;;;;;;;;;9.03;46.44;;;;;;2674866;76;20329;-91
2023/03/09 04:26:11;;;;;;;;;;;8.98;47.58;;;;;;2673818;76;20349;-91
2023/03/09 04:29:39;;;;;;;;;;;9.04;47.83;;;;;;2674527;76;20315;-91
2023/03/09 04:33:08;;;;;;;;;;;9.08;47.84;;;;;;2674615;76;20320;-91
2023/03/09 04:36:39;;;;;;;;;;;9.04;48.21;;;;;;2673966;76;20328;-92
2023/03/09 04:40:07;;;;;;;;;;;9.04;49.20;;;;;;2674181;76;20761;-92
2023/03/09 04:43:35;;;;;;;;;;;9.12;49.02;;;;;;2673305;76;20763;-92
2023/03/09 04:47:03;;;;;;;;;;;9.06;48.45;;;;;;2674328;76;20516;-91
2023/03/09 04:50:31;;;;;;;;;;;9.08;49.02;;;;;;2674461;76;20304;-92
2023/03/09 04:53:59;;;;;;;;;;;9.15;49.28;;;;;;2673791;76;20308;-92
2023/03/09 04:57:27;;;;;;;;;;;9.15;48.31;;;;;;2674224;76;20351;-92
2023/03/09 05:00:56;;;;;;;;;;;9.14;48.17;;;;;;2673963;76;20400;-92
2023/03/09 05:04:24;;;;;;;;;;;9.21;48.12;;;;;;2674095;76;20412;-92
2023/03/09 05:07:52;;;;;;;;;;;9.19;47.25;;;;;;2673817;76;20340;-92
2023/03/09 05:11:20;;;;;;;;;;;9.25;46.74;;;;;;2674412;76;20323;-92
2023/03/09 05:14:48;;;;;;;;;;;9.27;46.83;;;;;;2674038;76;20329;-91
2023/03/09 05:18:16;;;;;;;;;;;9.24;45.19;;;;;;2674349;76;20298;-92
2023/03/09 05:21:44;;;;;;;;;;;9.27;44.44;;;;;;2675183;76;20320;-92
2023/03/09 05:25:12;;;;;;;;;;;9.36;45.03;;;;;;2674202;76;20331;-92
2023/03/09 05:28:40;;;;;;;;;;;9.32;42.73;;;;;;2673855;76;20378;-91
2023/03/09 05:32:10;;;;;;;;;;;9.42;43.31;;;;;;2671705;76;20754;-91
2023/03/09 05:35:41;;;;;;;;;;;9.40;42.25;;;;;;2672939;76;20775;-90
2023/03/09 05:39:09;;;;;;;;;;;9.37;42.00;;;;;;2673318;76;20352;-91
2023/03/09 05:42:38;;;;;;;;;;;9.37;40.15;;;;;;2671850;76;20326;-90
2023/03/09 05:46:06;;;;;;;;;;;9.37;39.78;;;;;;2673537;76;20328;-90
2023/03/09 05:49:34;;;;;;;;;;;9.48;39.94;;;;;;2672515;76;20316;-91
2023/03/09 05:53:02;;;;;;;;;;;9.41;38.68;;;;;;2672288;76;20329;-91
2023/03/09 05:56:30;;;;;;;;;;;9.26;39.74;;;;;;2671782;76;20332;-91
2023/03/09 05:59:58;;;;;;;;;;;9.17;40.78;;;;;;2671986;76;20311;-91
2023/03/09 06:03:26;;;;;;;;;;;9.04;40.88;;;;;;2671155;76;20398;-91
2023/03/09 06:06:54;;;;;;;;;;;9.14;41.58;;;;;;2671955;76;20301;-90
2023/03/09 06:10:22;;;;;;;;;;;9.04;40.59;;;;;;2671966;76;20330;-89
2023/03/09 06:13:50;;;;;;;;;;;9.21;41.01;;;;;;2672398;76;20327;-90
2023/03/09 06:17:21;;;;;;;;;;;9.34;40.01;;;;;;2670062;76;20324;-89
2023/03/09 06:20:50;;;;;;;;;;;9.37;38.69;;;;;;2671375;76;20788;-91
2023/03/09 06:24:18;;;;;;;;;;;9.44;38.14;;;;;;2670972;76;20806;-90
2023/03/09 06:27:46;;;;;;;;;;;9.36;36.51;;;;;;2672207;76;20756;-90
2023/03/09 06:31:14;;;;;;;;;;;9.46;36.27;;;;;;2670950;76;20966;-90
2023/03/09 06:34:42;;;;;;;;;;;9.54;35.31;;;;;;2670486;76;20829;-90
2023/03/09 06:38:10;;;;;;;;;;;9.59;35.73;;;;;;2672118;76;20761;-90
2023/03/09 06:41:38;;;;;;;;;;;9.61;33.90;;;;;;2671527;76;20320;-90
2023/03/09 06:45:06;;;;;;;;;;;9.59;33.02;;;;;;2673577;76;20326;-88
2023/03/09 06:48:34;;;;;;;;;;;9.52;32.36;;;;;;2672137;76;20320;-88
2023/03/09 06:52:02;;;;;;;;;;;9.64;32.28;;;;;;2670341;76;20358;-88
2023/03/09 06:55:30;;;;;;;;;;;9.72;31.97;;;;;;2671234;76;20850;-88
2023/03/09 06:58:59;;;;;;;;;;;9.71;31.53;;;;;;2672210;76;20772;-89
2023/03/09 07:02:27;;;;;;;;;;;9.92;32.48;;;;;;2670783;76;20327;-88
2023/03/09 07:05:55;;;;;;;;;;;10.19;32.47;;;;;;2673153;76;20323;-87
2023/03/09 07:09:23;;;;;;;;;;;10.31;30.91;;;;;;2670749;76;20351;-89
2023/03/09 07:12:51;;;;;;;;;;;10.52;30.38;;;;;;2672400;76;20343;-90
2023/03/09 07:16:19;;;;;;;;;;;10.44;29.85;;;;;;2672110;76;20327;-89
2023/03/09 07:19:47;;;;;;;;;;;10.50;29.03;;;;;;2672277;76;20336;-89
2023/03/09 07:23:15;;;;;;;;;;;10.43;28.80;;;;;;2671068;76;20356;-89
2023/03/09 07:26:43;;;;;;;;;;;10.35;28.26;;;;;;2669332;76;20832;-88
2023/03/09 07:30:11;;;;;;;;;;;10.22;28.18;;;;;;2673708;76;20344;-89
2023/03/09 07:33:40;;;;;;;;;;;10.37;28.25;;;;;;2673780;76;20326;-87
2023/03/09 07:37:08;;;;;;;;;;;10.48;27.74;;;;;;2673530;76;20323;-90
2023/03/09 07:40:39;;;;;;;;;;;10.51;27.16;;;;;;2674015;76;20316;-89
2023/03/09 07:44:07;;;;;;;;;;;10.66;26.49;;;;;;2674174;76;20815;-87
2023/03/09 07:47:35;;;;;;;;;;;10.73;25.54;;;;;;2673337;76;20802;-90
2023/03/09 07:51:03;;;;;;;;;;;10.92;25.18;;;;;;2673766;76;20650;-90
2023/03/09 07:54:32;;;;;;;;;;;10.73;23.79;;;;;;2672796;76;20338;-90
2023/03/09 07:58:01;;;;;;;;;;;11.41;23.44;;;;;;2673267;76;20315;-89
2023/03/09 08:01:29;;;;;;;;;;;11.75;21.79;;;;;;2674158;76;20304;-89
2023/03/09 08:04:57;;;;;;;;;;;11.43;20.62;;;;;;2672853;76;20347;-88
2023/03/09 08:08:26;;;;;;;;;;;11.55;20.28;;;;;;2673734;76;20320;-89
2023/03/09 08:11:54;;;;;;;;;;;11.99;19.79;;;;;;2673427;76;20366;-90
2023/03/09 08:15:22;;;;;;;;;;;11.87;18.33;;;;;;2673348;76;20314;-87
2023/03/09 08:18:50;;;;;;;;;;;11.79;18.65;;;;;;2672181;76;20340;-90
2023/03/09 08:22:18;;;;;;;;;;;12.00;18.19;;;;;;2671881;76;20580;-89
2023/03/09 08:25:46;;;;;;;;;;;12.29;17.69;;;;;;2672899;76;20351;-86
2023/03/09 08:29:14;;;;;;;;;;;12.67;17.79;;;;;;2672337;76;20363;-89
2023/03/09 08:32:46;;;;;;;;;;;12.80;16.96;;;;;;2672114;76;20811;-89
2023/03/09 08:36:12;;;;;;;;;;;12.75;16.60;;;;;;2670333;76;20354;-88
2023/03/09 08:39:40;;;;;;;;;;;12.80;16.89;;;;;;2672000;76;20348;-88
2023/03/09 08:43:08;;;;;;;;;;;12.69;15.73;;;;;;2672141;76;20321;-87
2023/03/09 08:46:36;;;;;;;;;;;13.05;14.30;;;;;;2670298;76;20332;-87
2023/03/09 08:50:05;;;;;;;;;;;13.98;12.88;;;;;;2670792;76;20388;-89
2023/03/09 08:53:33;;;;;;;;;;;14.05;9.03;;;;;;2672360;76;20305;-88
2023/03/09 08:57:01;;;;;;;;;;;14.08;9.11;;;;;;2670914;76;20771;-88
2023/03/09 09:00:29;;;;;;;;;;;13.78;9.93;;;;;;2671718;76;21117;-88
2023/03/09 09:03:57;;;;;;;;;;;13.89;9.66;;;;;;2672084;76;20324;-85
2023/03/09 09:07:25;;;;;;;;;;;13.73;8.11;;;;;;2671597;76;20322;-89
2023/03/09 09:10:56;;;;;;;;;;;13.75;7.82;;;;;;2671489;76;20325;-88
2023/03/09 09:14:23;;;;;;;;;;;14.10;6.44;;;;;;2671709;76;20367;-87
2023/03/09 09:17:53;;;;;;;;;;;14.65;5.74;;;;;;2672581;76;20315;-87
2023/03/09 09:21:21;;;;;;;;;;;14.44;5.38;;;;;;2672145;76;20329;-88
2023/03/09 09:24:49;;;;;;;;;;;13.86;4.38;;;;;;2672533;76;20321;-89
2023/03/09 09:28:17;;;;;;;;;;;13.82;4.54;;;;;;2672562;76;20660;-85
2023/03/09 09:31:45;;;;;;;;;;;14.10;5.51;;;;;;2672912;76;21073;-87
2023/03/09 09:35:14;;;;;;;;;;;13.99;4.57;;;;;;2672283;76;20367;-88
2023/03/09 09:38:45;;;;;;;;;;;13.80;5.18;;;;;;2671471;76;20789;-89
2023/03/09 09:42:13;;;;;;;;;;;13.38;4.64;;;;;;2672942;76;20320;-85
2023/03/09 09:45:43;;;;;;;;;;;13.92;5.63;;;;;;2670999;76;20335;-87
2023/03/09 09:49:11;;;;;;;;;;;13.66;3.70;;;;;;2671613;76;20335;-88
2023/03/09 09:52:39;;;;;;;;;;;13.56;4.63;;;;;;2672415;76;20309;-88
2023/03/09 09:56:08;;;;;;;;;;;13.43;4.48;;;;;;2671507;76;20363;-87
2023/03/09 09:59:36;;;;;;;;;;;13.52;3.75;;;;;;2671249;76;20336;-88
2023/03/09 10:03:04;;;;;;;;;;;14.29;3.67;;;;;;2671924;76;20326;-88
2023/03/09 10:06:32;;;;;;;;;;;14.58;1.89;;;;;;2671359;76;20317;-88
2023/03/09 10:10:00;;;;;;;;;;;14.80;0.52;;;;;;2670147;76;20350;-88
2023/03/09 10:13:29;;;;;;;;;;;15.04;0.95;;;;;;2670554;76;20393;-86
2023/03/09 10:16:58;;;;;;;;;;;15.08;-0.29;;;;;;2670349;76;20344;-88
2023/03/09 10:20:26;;;;;;;;;;;14.98;0.07;;;;;;2669129;76;20460;-88
2023/03/09 10:23:57;;;;;;;;;;;14.68;0.32;;;;;;2671163;76;20440;-87
2023/03/09 10:27:25;;;;;;;;;;;14.39;-0.12;;;;;;2671281;76;20391;-85
2023/03/09 10:30:53;;;;;;;;;;;14.24;0.61;;;;;;2671630;76;20367;-88
2023/03/09 10:34:23;;;;;;;;;;;13.98;0.68;;;;;;2672525;76;20307;-86
2023/03/09 10:37:51;;;;;;;;;;;14.47;2.58;;;;;;2671345;76;20320;-88
2023/03/09 10:41:19;;;;;;;;;;;14.66;0.97;;;;;;2672498;76;20327;-88
2023/03/09 10:44:47;;;;;;;;;;;14.79;-0.88;;;;;;2672844;76;20828;-87
2023/03/09 10:48:15;;;;;;;;;;;14.73;-2.38;;;;;;2671856;76;20848;-87
2023/03/09 10:51:43;;;;;;;;;;;14.82;-1.85;;;;;;2672392;76;20638;-88
2023/03/09 10:55:12;;;;;;;;;;;14.97;-1.41;;;;;;2671607;76;20351;-87
2023/03/09 10:58:40;;;;;;;;;;;14.95;-1.61;;;;;;2671893;76;20373;-86
2023/03/09 11:02:08;;;;;;;;;;;15.07;-0.86;;;;;;2672319;76;20757;-87
2023/03/09 11:05:36;;;;;;;;;;;15.07;-2.42;;;;;;2671582;76;20917;-87
2023/03/09 11:09:04;;;;;;;;;;;15.37;-3.54;;;;;;2671733;76;20819;-88
2023/03/09 11:12:32;;;;;;;;;;;15.26;-2.74;;;;;;2672973;76;20336;-88
2023/03/09 11:16:00;;;;;;;;;;;14.72;-4.57;;;;;;2670057;76;20339;-88
2023/03/09 11:19:29;;;;;;;;;;;15.21;-3.98;;;;;;2671503;76;20807;-86
2023/03/09 11:22:58;;;;;;;;;;;15.27;-4.95;;;;;;2672471;76;20338;-88
2023/03/09 11:26:26;;;;;;;;;;;15.45;-5.32;;;;;;2672538;76;20376;-88
2023/03/09 11:29:54;;;;;;;;;;;15.56;-5.15;;;;;;2671640;76;20659;-89
2023/03/09 11:33:22;;;;;;;;;;;15.67;-5.21;;;;;;2672843;76;20764;-88
2023/03/09 11:36:50;;;;;;;;;;;15.76;118.76;;;;;;2672580;76;20321;-86
2023/03/09 11:40:18;;;;;;;;;;;15.43;118.60;;;;;;2673550;76;20797;-86
2023/03/09 11:43:46;;;;;;;;;;;15.96;118.58;;;;;;2673672;76;20838;-89
2023/03/09 11:47:14;;;;;;;;;;;16.29;118.05;;;;;;2672849;76;20331;-86
2023/03/09 11:50:42;;;;;;;;;;;15.07;117.06;;;;;;2671793;76;20350;-88
2023/03/09 11:54:10;;;;;;;;;;;14.50;118.15;;;;;;2673257;76;20323;-88
2023/03/09 11:57:38;;;;;;;;;;;14.22;-5.53;;;;;;2672028;76;20325;-88
2023/03/09 12:01:07;;;;;;;;;;;14.06;118.87;;;;;;2671859;76;20332;-87
2023/03/09 12:04:35;;;;;;;;;;;14.43;-5.91;;;;;;2672402;76;20338;-86
2023/03/09 12:08:03;;;;;;;;;;;15.00;117.70;;;;;;2673206;76;20348;-88
2023/03/09 12:11:34;;;;;;;;;;;15.41;116.46;;;;;;2670969;76;20801;-88
2023/03/09 12:15:20;;;;;;;;;;;15.34;115.38;;;;;;2672746;76;20363;-91
2023/03/09 12:18:48;;;;;;;;;;;15.21;115.85;;;;;;2673414;76;20330;-91
2023/03/09 12:22:20;;;;;;;;;;;15.38;116.02;;;;;;2673305;76;20356;-92
2023/03/09 12:25:48;;;;;;;;;;;15.31;116.71;;;;;;2670771;76;21899;-91
2023/03/09 12:29:17;;;;;;;;;;;15.15;115.86;;;;;;2672010;76;20350;-91
2023/03/09 12:32:45;;;;;;;;;;;15.26;115.73;;;;;;2671783;76;20361;-91
2023/03/09 12:36:14;;;;;;;;;;;15.97;116.36;;;;;;2671733;76;20323;-91
2023/03/09 12:39:42;;;;;;;;;;;15.99;113.89;;;;;;2672653;76;20552;-91
2023/03/09 12:43:10;;;;;;;;;;;15.92;113.51;;;;;;2672206;76;20349;-91
2023/03/09 12:46:38;;;;;;;;;;;15.61;113.29;;;;;;2670514;76;20345;-91
2023/03/09 12:50:07;;;;;;;;;;;15.85;113.80;;;;;;2671211;76;20380;-91
2023/03/09 12:53:40;;;;;;;;;;;15.57;112.46;;;;;;2669851;76;20343;-91
2023/03/09 12:57:05;;;;;;;;;;;15.45;112.22;;;;;;2672834;76;20353;-91
2023/03/09 13:00:33;;;;;;;;;;;15.39;111.98;;;;;;2671863;76;20341;-91
2023/03/09 13:04:02;;;;;;;;;;;15.38;112.01;;;;;;2671323;76;20944;-91
2023/03/09 13:07:30;;;;;;;;;;;14.87;112.03;;;;;;2673061;76;20785;-91
2023/03/09 13:10:58;;;;;;;;;;;14.72;113.39;;;;;;2672208;76;20344;-92
2023/03/09 13:14:26;;;;;;;;;;;14.59;113.57;;;;;;2672367;76;20837;-91
2023/03/09 13:17:54;;;;;;;;;;;14.82;113.77;;;;;;2671893;76;20346;-91
2023/03/09 13:21:22;;;;;;;;;;;14.54;113.39;;;;;;2672137;76;20371;-91
2023/03/09 13:24:51;;;;;;;;;;;14.21;113.01;;;;;;2672575;76;20696;-91
2023/03/09 13:28:19;;;;;;;;;;;14.27;114.61;;;;;;2671412;76;20366;-91
2023/03/09 13:31:47;;;;;;;;;;;14.19;114.68;;;;;;2671750;76;20809;-91
2023/03/09 13:35:15;;;;;;;;;;;14.06;115.03;;;;;;2671872;76;20362;-92
2023/03/09 13:38:43;;;;;;;;;;;14.20;115.88;;;;;;2672181;76;20426;-91
2023/03/09 13:42:12;;;;;;;;;;;14.35;114.80;;;;;;2671861;76;20357;-91
2023/03/09 13:45:40;;;;;;;;;;;14.50;114.35;;;;;;2670370;76;20356;-92
2023/03/09 13:49:08;;;;;;;;;;;14.82;114.78;;;;;;2671708;76;20413;-93
2023/03/09 13:52:40;;;;;;;;;;;15.28;113.68;;;;;;2671226;76;20408;-91
2023/03/09 13:56:09;;;;;;;;;;;15.65;111.91;;;;;;2672143;76;20331;-92
2023/03/09 13:59:37;;;;;;;;;;;15.65;111.22;;;;;;2672113;76;20341;-93
2023/03/09 14:03:05;;;;;;;;;;;15.86;111.42;;;;;;2672015;76;20389;-90
2023/03/09 14:06:33;;;;;;;;;;;15.55;111.41;;;;;;2670771;76;20395;-91
2023/03/09 14:10:02;;;;;;;;;;;15.37;111.26;;;;;;2671315;76;20399;-92
2023/03/09 14:13:30;;;;;;;;;;;15.28;110.68;;;;;;2672356;76;20352;-91
2023/03/09 14:16:58;;;;;;;;;;;15.16;109.54;;;;;;2672673;76;20376;-91
2023/03/09 14:20:26;;;;;;;;;;;14.92;108.98;;;;;;2671907;76;20874;-93
2023/03/09 14:24:05;;;;;;;;;;;15.01;109.65;;;;;;2672217;76;21109;-93
2023/03/09 14:27:30;;;;;;;;;;;14.79;109.16;;;;;;2671242;76;20372;-91
2023/03/09 14:31:01;;;;;;;;;;;14.65;110.65;;;;;;2672119;76;20353;-92
2023/03/09 14:34:42;;;;;;;;;;;14.88;111.67;;;;;;2671533;76;20650;-90
2023/03/09 14:38:10;;;;;;;;;;;14.93;111.90;;;;;;2672608;76;20768;-91
2023/03/09 14:41:38;;;;;;;;;;;14.70;111.86;;;;;;2672098;76;20814;-93
2023/03/09 14:45:09;;;;;;;;;;;14.62;112.03;;;;;;2672467;76;20410;-91
2023/03/09 14:48:39;;;;;;;;;;;14.54;111.74;;;;;;2671072;76;20805;-91
2023/03/09 14:52:12;;;;;;;;;;;14.81;112.60;;;;;;2671720;76;20327;-91
2023/03/09 14:55:40;;;;;;;;;;;14.91;112.40;;;;;;2669387;76;20578;-91
2023/03/09 14:59:16;;;;;;;;;;;15.33;112.43;;;;;;2671562;76;20328;-95
2023/03/09 15:02:50;;;;;;;;;;;15.55;111.65;;;;;;2671947;76;20380;-92
2023/03/09 15:06:25;;;;;;;;;;;15.67;110.95;;;;;;2671742;76;20408;-94
2023/03/09 15:09:48;;;;;;;;;;;15.92;110.31;;;;;;2669773;76;20807;-93
2023/03/09 15:13:17;;;;;;;;;;;16.37;110.40;;;;;;2668864;76;20353;-92
2023/03/09 15:16:45;;;;;;;;;;;16.79;110.58;;;;;;2669353;76;20950;-92
2023/03/09 15:20:14;;;;;;;;;;;16.63;108.68;;;;;;2669231;76;20400;-91
2023/03/09 15:23:42;;;;;;;;;;;16.79;108.64;;;;;;2670281;76;20401;-92
2023/03/09 15:27:15;;;;;;;;;;;16.75;109.11;;;;;;2671761;76;20357;-92
2023/03/09 15:30:40;;;;;;;;;;;16.30;108.73;;;;;;2672359;76;20776;-92
2023/03/09 15:34:14;;;;;;;;;;;16.49;108.65;;;;;;2671302;76;20413;-92
2023/03/09 15:37:39;;;;;;;;;;;16.67;108.27;;;;;;2672785;76;20325;-91
2023/03/09 15:41:14;;;;;;;;;;;16.45;108.64;;;;;;2673151;76;20365;-91
2023/03/09 15:44:37;;;;;;;;;;;16.48;109.49;;;;;;2671293;76;20831;-91
2023/03/09 15:48:05;;;;;;;;;;;23.12;102.35;;;;;;2672451;76;20351;-91
2023/03/09 15:51:35;;;;;;;;;;;22.32;92.28;;;;;;2673685;76;20365;-92
2023/03/09 15:55:14;;;;;;;;;;;19.53;99.45;;;;;;2672437;76;20391;-92
2023/03/09 15:58:47;;;;;;;;;;;20.46;102.92;;;;;;2677710;76;20369;-92
2023/03/09 16:02:13;;;;;;;;;;;22.53;95.05;;;;;;2675747;76;20356;-92
2023/03/09 16:05:51;;;;;;;;;;;17.61;99.00;;;;;;2672034;76;20728;-91
2023/03/09 16:09:18;;;;;;;;;;;15.73;105.50;;;;;;2671035;76;20325;-92
2023/03/09 16:12:49;;;;;;;;;;;15.26;108.20;;;;;;2670573;76;20845;-91
2023/03/09 16:16:18;;;;;;;;;;;14.71;109.59;;;;;;2670832;76;20764;-92
2023/03/09 16:19:54;;;;;;;;;;;14.34;110.71;;;;;;2668525;76;20349;-92
2023/03/09 16:23:19;;;;;;;;;;;14.40;111.95;;;;;;2671671;76;20446;-91
2023/03/09 16:26:52;;;;;;;;;;;14.24;112.42;;;;;;2669512;76;20353;-91
2023/03/09 16:30:23;;;;;;;;;;;13.95;112.97;;;;;;2671629;76;20402;-91
2023/03/09 16:33:52;;;;;;;;;;;13.70;113.70;;;;;;2671817;76;20368;-91
2023/03/09 16:37:28;;;;;;;;;;;13.59;114.45;;;;;;2670598;76;20333;-90
2023/03/09 16:40:53;;;;;;;;;;;13.56;115.33;;;;;;2669391;76;20365;-92
2023/03/09 16:44:23;;;;;;;;;;;13.36;115.42;;;;;;2670589;76;20353;-91
2023/03/09 16:47:53;;;;;;;;;;;13.10;116.00;;;;;;2671334;76;20356;-90
2023/03/09 16:51:21;;;;;;;;;;;13.11;116.72;;;;;;2670809;76;20321;-90
2023/03/09 16:54:49;;;;;;;;;;;12.93;116.86;;;;;;2670886;76;20802;-91
2023/03/09 16:58:19;;;;;;;;;;;12.80;117.63;;;;;;2671582;76;20346;-90
2023/03/09 17:01:47;;;;;;;;;;;12.64;117.83;;;;;;2672081;76;20367;-91
2023/03/09 17:05:15;;;;;;;;;;;12.59;118.73;;;;;;2670554;76;20404;-92
2023/03/09 17:08:43;;;;;;;;;;;12.40;-6.00;;;;;;2669702;76;20352;-92
2023/03/09 17:12:12;;;;;;;;;;;12.29;-5.41;;;;;;2669070;76;20327;-91
2023/03/09 17:15:40;;;;;;;;;;;12.11;-4.90;;;;;;2670021;76;20382;-91
2023/03/09 17:19:08;;;;;;;;;;;11.99;-4.21;;;;;;2671673;76;20340;-90
2023/03/09 17:22:36;;;;;;;;;;;11.81;-3.91;;;;;;2672338;76;20323;-90
2023/03/09 17:26:04;;;;;;;;;;;11.69;-3.57;;;;;;2673404;76;20359;-91
2023/03/09 17:29:33;;;;;;;;;;;11.53;-3.24;;;;;;2673832;76;20541;-91
2023/03/09 17:33:01;;;;;;;;;;;11.40;-2.89;;;;;;2673055;76;20339;-91
2023/03/09 17:36:29;;;;;;;;;;;11.30;-2.52;;;;;;2671971;76;20345;-91
2023/03/09 17:39:57;;;;;;;;;;;11.19;-2.29;;;;;;2671728;76;20785;-91
2023/03/09 17:43:25;;;;;;;;;;;11.11;-1.85;;;;;;2671790;76;20845;-91
2023/03/09 17:46:56;;;;;;;;;;;11.02;-1.66;;;;;;2672601;76;20448;-91
2023/03/09 17:50:24;;;;;;;;;;;10.90;-1.55;;;;;;2673128;76;20368;-92
2023/03/09 17:53:52;;;;;;;;;;;10.83;-1.43;;;;;;2672155;76;20392;-91
2023/03/09 17:57:20;;;;;;;;;;;10.74;-1.19;;;;;;2672860;76;20964;-91
2023/03/09 18:00:49;;;;;;;;;;;10.63;-1.15;;;;;;2672902;76;20368;-91
2023/03/09 18:04:20;;;;;;;;;;;10.54;-0.96;;;;;;2672111;76;20313;-92
2023/03/09 18:07:50;;;;;;;;;;;10.48;-0.88;;;;;;2672202;76;20384;-91
2023/03/09 18:11:18;;;;;;;;;;;10.39;-0.85;;;;;;2672406;76;20368;-91
2023/03/09 18:14:47;;;;;;;;;;;10.31;-0.87;;;;;;2671678;76;20637;-90
2023/03/09 18:18:15;;;;;;;;;;;10.29;-0.74;;;;;;2672514;76;20789;-89
2023/03/09 18:21:48;;;;;;;;;;;10.18;-0.57;;;;;;2672693;76;20341;-89
2023/03/09 18:25:13;;;;;;;;;;;10.04;-0.48;;;;;;2671829;76;20315;-90
2023/03/09 18:28:44;;;;;;;;;;;9.91;-0.37;;;;;;2671384;76;20430;-90
2023/03/09 18:32:16;;;;;;;;;;;9.80;-0.26;;;;;;2672359;76;20477;-90
2023/03/09 18:35:43;;;;;;;;;;;9.74;-0.06;;;;;;2672008;76;20899;-90
2023/03/09 18:39:11;;;;;;;;;;;9.62;-0.14;;;;;;2672064;76;20346;-89
2023/03/09 18:42:39;;;;;;;;;;;9.50;-0.19;;;;;;2672168;76;20345;-90
2023/03/09 18:46:07;;;;;;;;;;;9.44;-0.22;;;;;;2672599;76;20355;-90
2023/03/09 18:49:36;;;;;;;;;;;9.27;-0.42;;;;;;2671776;76;20696;-90
2023/03/09 18:53:09;;;;;;;;;;;9.10;-0.45;;;;;;2672562;76;20304;-90
2023/03/09 18:56:40;;;;;;;;;;;8.94;-0.45;;;;;;2672181;76;20328;-90
2023/03/09 19:00:08;;;;;;;;;;;8.79;-0.46;;;;;;2671314;76;20352;-90
2023/03/09 19:03:43;;;;;;;;;;;8.66;-0.44;;;;;;2671713;76;21252;-90
2023/03/09 19:07:09;;;;;;;;;;;8.56;-0.38;;;;;;2672840;76;20309;-90
2023/03/09 19:10:37;;;;;;;;;;;8.46;-0.22;;;;;;2671652;76;20330;-90
2023/03/09 19:14:06;;;;;;;;;;;8.38;-0.11;;;;;;2670834;76;20345;-90
2023/03/09 19:17:35;;;;;;;;;;;8.28;-0.08;;;;;;2671039;76;20365;-90
2023/03/09 19:21:03;;;;;;;;;;;8.19;0.07;;;;;;2671929;76;20869;-90
2023/03/09 19:24:31;;;;;;;;;;;8.11;0.15;;;;;;2669133;76;20766;-90
2023/03/09 19:28:05;;;;;;;;;;;8.04;0.19;;;;;;2668336;76;20347;-91
2023/03/09 19:31:32;;;;;;;;;;;7.96;0.26;;;;;;2669812;76;20441;-90
2023/03/09 19:35:08;;;;;;;;;;;7.90;0.36;;;;;;2672320;76;20323;-90
2023/03/09 19:38:39;;;;;;;;;;;7.83;0.45;;;;;;2672117;76;20356;-90
2023/03/09 19:42:07;;;;;;;;;;;7.77;0.65;;;;;;2673618;76;20308;-90
2023/03/09 19:45:40;;;;;;;;;;;7.74;0.70;;;;;;2673622;76;20324;-90
2023/03/09 19:49:09;;;;;;;;;;;7.71;0.77;;;;;;2672428;76;20393;-90
2023/03/09 19:52:38;;;;;;;;;;;7.67;0.86;;;;;;2671060;76;20873;-91
2023/03/09 19:56:08;;;;;;;;;;;7.63;0.81;;;;;;2671951;76;20367;-90
2023/03/09 19:59:42;;;;;;;;;;;7.56;0.91;;;;;;2670192;76;20385;-90
2023/03/09 20:03:13;;;;;;;;;;;7.53;1.06;;;;;;2666817;76;20418;-90
2023/03/09 20:06:46;;;;;;;;;;;7.48;1.13;;;;;;2670928;76;20766;-91
2023/03/09 20:10:19;;;;;;;;;;;7.47;1.26;;;;;;2671198;76;20406;-90
2023/03/09 20:13:51;;;;;;;;;;;7.47;1.52;;;;;;2669883;76;20613;-91
2023/03/09 20:17:19;;;;;;;;;;;7.48;1.56;;;;;;2668973;76;20364;-91